createdAt,value
2023-02-24T00:02:05.888Z,45.70
2023-02-24T00:05:05.657Z,47.27
2023-02-24T00:07:32.393Z,44.60
2023-02-24T00:09:59.206Z,48.17
2023-02-24T00:12:25.965Z,46.13
2023-02-24T00:14:52.851Z,46.00
2023-02-24T00:17:19.867Z,47.17
2023-02-24T00:19:46.898Z,49.07
2023-02-24T00:22:13.879Z,46.23
2023-02-24T00:24:40.719Z,46.60
2023-02-24T00:27:08.010Z,48.13
2023-02-24T00:29:37.711Z,51.23
2023-02-24T00:32:08.061Z,47.03
2023-02-24T00:34:37.613Z,49.80
2023-02-24T00:37:09.002Z,50.50
2023-02-24T00:39:41.487Z,49.93
2023-02-24T00:42:08.747Z,49.03
2023-02-24T00:44:36.843Z,49.40
2023-02-24T00:47:06.872Z,48.60
2023-02-24T00:49:36.010Z,50.87
2023-02-24T00:52:04.755Z,50.77
2023-02-24T00:54:32.389Z,51.83
2023-02-24T00:56:59.219Z,50.17
2023-02-24T00:59:26.187Z,48.07
2023-02-24T01:01:54.775Z,48.27
2023-02-24T01:04:22.725Z,50.90
2023-02-24T01:07:00.076Z,47.47
2023-02-24T01:09:30.123Z,51.53
2023-02-24T01:12:16.965Z,52.10
2023-02-24T01:14:49.501Z,46.13
2023-02-24T01:17:18.827Z,50.00
2023-02-24T01:19:49.172Z,50.03
2023-02-24T01:22:17.333Z,47.93
2023-02-24T01:24:45.483Z,47.00
2023-02-24T01:27:13.995Z,50.57
2023-02-24T01:29:41.933Z,52.40
2023-02-24T01:32:19.631Z,47.50
2023-02-24T01:34:47.847Z,53.70
2023-02-24T01:37:16.579Z,51.23
2023-02-24T01:39:47.426Z,51.90
2023-02-24T01:42:17.114Z,47.13
2023-02-24T01:44:43.907Z,51.53
2023-02-24T01:47:11.828Z,50.30
2023-02-24T01:49:42.464Z,48.83
2023-02-24T01:52:13.820Z,51.33
2023-02-24T01:54:59.420Z,53.20
2023-02-24T01:57:29.536Z,47.70
2023-02-24T02:00:02.210Z,49.10
2023-02-24T02:02:29.675Z,53.33
2023-02-24T02:05:05.824Z,47.90
2023-02-24T02:07:32.983Z,54.70
2023-02-24T02:10:04.287Z,46.87
2023-02-24T02:12:37.249Z,46.60
2023-02-24T02:15:06.344Z,50.73
2023-02-24T02:17:48.256Z,52.23
2023-02-24T02:20:24.132Z,45.27
2023-02-24T02:23:09.744Z,48.07
2023-02-24T02:25:39.356Z,53.90
2023-02-24T02:28:45.518Z,49.97
2023-02-24T02:31:46.680Z,46.10
2023-02-24T02:34:23.149Z,46.57
2023-02-24T02:37:11.920Z,46.80
2023-02-24T02:39:41.452Z,50.00
2023-02-24T02:42:36.978Z,46.63
2023-02-24T02:45:13.398Z,49.03
2023-02-24T02:48:08.641Z,50.43
2023-02-24T02:50:48.268Z,43.13
2023-02-24T02:53:56.138Z,53.07
2023-02-24T02:56:32.092Z,49.77
2023-02-24T02:59:00.577Z,47.93
2023-02-24T03:01:34.085Z,46.93
2023-02-24T03:04:05.253Z,45.93
2023-02-24T03:06:48.636Z,48.70
2023-02-24T03:09:22.774Z,49.90
2023-02-24T03:11:54.579Z,47.10
2023-02-24T03:14:26.678Z,50.90
2023-02-24T03:16:56.268Z,50.97
2023-02-24T03:19:37.856Z,51.37
2023-02-24T03:22:14.692Z,52.60
2023-02-24T03:24:42.597Z,50.67
2023-02-24T03:27:31.253Z,51.83
2023-02-24T03:30:09.711Z,50.43
2023-02-24T03:33:10.145Z,56.60
2023-02-24T03:35:42.259Z,55.03
2023-02-24T03:38:10.744Z,58.57
2023-02-24T03:40:39.108Z,57.40
2023-02-24T03:43:22.608Z,56.17
2023-02-24T03:45:50.039Z,58.67
2023-02-24T03:48:17.410Z,59.07
2023-02-24T03:50:45.000Z,62.83
2023-02-24T03:53:47.680Z,64.70
2023-02-24T03:56:58.724Z,62.13
2023-02-24T03:59:44.575Z,63.83
2023-02-24T04:02:40.468Z,59.43
2023-02-24T04:05:23.670Z,71.70
2023-02-24T04:08:00.506Z,60.57
2023-02-24T04:10:52.587Z,63.47
2023-02-24T04:13:43.412Z,67.47
2023-02-24T04:16:29.038Z,64.00
2023-02-24T04:19:03.818Z,60.57
2023-02-24T04:21:32.283Z,64.20
2023-02-24T04:24:06.353Z,70.47
2023-02-24T04:26:40.430Z,69.27
2023-02-24T04:29:09.230Z,67.43
2023-02-24T04:31:39.096Z,71.13
2023-02-24T04:34:09.526Z,73.60
2023-02-24T04:36:38.377Z,69.53
2023-02-24T04:39:05.224Z,75.73
2023-02-24T04:41:32.102Z,76.17
2023-02-24T04:43:58.876Z,74.63
2023-02-24T04:46:25.703Z,74.10
2023-02-24T04:48:52.494Z,77.73
2023-02-24T04:51:21.013Z,75.17
2023-02-24T04:53:49.735Z,70.70
2023-02-24T04:56:18.664Z,80.67
2023-02-24T04:58:46.460Z,79.50
2023-02-24T05:01:13.384Z,78.83
2023-02-24T05:03:43.254Z,83.83
2023-02-24T05:06:17.888Z,83.10
2023-02-24T05:08:45.210Z,80.93
2023-02-24T05:11:16.575Z,86.30
2023-02-24T05:13:47.121Z,78.00
2023-02-24T05:16:17.225Z,86.03
2023-02-24T05:18:44.877Z,90.23
2023-02-24T05:21:32.865Z,87.87
2023-02-24T05:24:04.621Z,82.43
2023-02-24T05:26:32.161Z,84.77
2023-02-24T05:29:01.985Z,91.27
2023-02-24T05:31:30.973Z,95.77
2023-02-24T05:34:03.162Z,95.27
2023-02-24T05:36:33.532Z,91.30
2023-02-24T05:39:20.848Z,91.93
2023-02-24T05:41:49.548Z,93.97
2023-02-24T05:44:23.383Z,93.63
2023-02-24T05:46:58.495Z,99.47
2023-02-24T05:49:33.801Z,87.70
2023-02-24T05:52:07.695Z,93.03
2023-02-24T05:54:40.322Z,98.73
2023-02-24T05:57:24.801Z,91.03
2023-02-24T05:59:53.206Z,91.43
2023-02-24T06:02:27.551Z,93.43
2023-02-24T06:04:55.669Z,93.37
2023-02-24T06:07:34.218Z,96.00
2023-02-24T06:10:04.788Z,100.47
2023-02-24T06:12:33.878Z,94.13
2023-02-24T06:15:00.803Z,101.63
2023-02-24T06:17:28.786Z,99.03
2023-02-24T06:19:56.090Z,92.77
2023-02-24T06:22:25.149Z,102.83
2023-02-24T06:24:54.176Z,96.17
2023-02-24T06:27:21.857Z,94.60
2023-02-24T06:29:51.068Z,101.03
2023-02-24T06:32:24.600Z,103.17
2023-02-24T06:34:52.279Z,102.37
2023-02-24T06:37:19.710Z,99.30
2023-02-24T06:39:46.526Z,99.80
2023-02-24T06:42:13.752Z,96.67
2023-02-24T06:44:41.846Z,94.40
2023-02-24T06:47:13.328Z,98.50
2023-02-24T06:49:41.627Z,97.97
2023-02-24T06:52:08.733Z,96.23
2023-02-24T06:54:35.956Z,96.30
2023-02-24T06:57:04.143Z,99.00
2023-02-24T06:59:32.212Z,94.00
2023-02-24T07:02:02.098Z,95.00
2023-02-24T07:04:29.435Z,92.40
2023-02-24T07:07:03.458Z,93.63
2023-02-24T07:09:31.569Z,90.40
2023-02-24T07:12:02.602Z,90.13
2023-02-24T07:14:33.149Z,88.03
2023-02-24T07:17:00.249Z,82.20
2023-02-24T07:19:29.590Z,87.00
2023-02-24T07:22:02.154Z,88.40
2023-02-24T07:24:46.202Z,86.63
2023-02-24T07:27:22.192Z,82.07
2023-02-24T07:29:52.989Z,80.10
2023-02-24T07:32:25.425Z,77.90
2023-02-24T07:34:53.113Z,75.43
2023-02-24T07:37:20.705Z,79.20
2023-02-24T07:39:47.690Z,76.90
2023-02-24T07:42:14.730Z,81.00
2023-02-24T07:44:44.547Z,77.17
2023-02-24T07:47:11.463Z,77.63
2023-02-24T07:49:40.963Z,79.27
2023-02-24T07:52:08.756Z,77.50
2023-02-24T07:54:42.304Z,74.50
2023-02-24T07:57:13.882Z,77.90
2023-02-24T07:59:48.074Z,71.23
2023-02-24T08:02:15.916Z,73.23
2023-02-24T08:04:50.411Z,73.10
2023-02-24T08:07:25.766Z,71.13
2023-02-24T08:10:24.326Z,74.53
2023-02-24T08:13:03.025Z,72.83
2023-02-24T08:15:34.005Z,73.20
2023-02-24T08:18:02.450Z,68.70
2023-02-24T08:20:52.459Z,74.67
2023-02-24T08:23:19.546Z,68.50
2023-02-24T08:25:47.486Z,74.83
2023-02-24T08:28:14.387Z,68.07
2023-02-24T08:30:46.860Z,70.10
2023-02-24T08:33:19.995Z,65.20
2023-02-24T08:35:51.971Z,66.10
2023-02-24T08:38:20.878Z,62.33
2023-02-24T08:40:53.705Z,70.63
2023-02-24T08:43:30.964Z,63.63
2023-02-24T08:46:13.476Z,57.33
2023-02-24T08:48:43.083Z,55.17
2023-02-24T08:51:12.302Z,60.57
2023-02-24T08:53:42.323Z,57.53
2023-02-24T08:56:12.002Z,52.10
2023-02-24T08:58:49.925Z,51.60
2023-02-24T09:01:19.206Z,52.93
2023-02-24T09:03:48.749Z,46.13
2023-02-24T09:06:25.360Z,49.87
2023-02-24T09:09:15.966Z,46.50
2023-02-24T09:11:47.388Z,46.37
2023-02-24T09:14:27.271Z,46.57
2023-02-24T09:17:02.312Z,45.13
2023-02-24T09:19:52.287Z,48.23
2023-02-24T09:22:32.789Z,44.73
2023-02-24T09:25:24.374Z,44.57
2023-02-24T09:28:17.761Z,43.37
2023-02-24T09:30:55.671Z,41.40
2023-02-24T09:33:39.835Z,45.33
2023-02-24T09:36:20.327Z,43.00
2023-02-24T09:38:59.493Z,41.07
2023-02-24T09:41:53.840Z,45.83
2023-02-24T09:44:24.488Z,43.70
2023-02-24T09:47:31.296Z,41.73
2023-02-24T09:50:05.641Z,43.20
2023-02-24T09:52:41.883Z,40.07
2023-02-24T09:55:25.079Z,42.10
2023-02-24T09:58:16.219Z,42.80
2023-02-24T10:00:55.751Z,40.50
2023-02-24T10:03:48.275Z,44.70
2023-02-24T10:06:35.230Z,42.77
2023-02-24T10:09:21.479Z,44.70
2023-02-24T10:11:56.148Z,45.37
2023-02-24T10:14:43.661Z,46.33
2023-02-24T10:17:23.066Z,43.47
2023-02-24T10:20:28.582Z,40.67
2023-02-24T10:23:05.679Z,41.37
2023-02-24T10:25:54.261Z,45.00
2023-02-24T10:28:39.826Z,44.80
2023-02-24T10:31:30.547Z,43.43
2023-02-24T10:34:09.137Z,37.47
2023-02-24T10:36:36.674Z,36.20
2023-02-24T10:39:16.988Z,37.90
2023-02-24T10:41:49.566Z,33.50
2023-02-24T10:44:24.686Z,31.33
2023-02-24T10:47:11.721Z,36.00
2023-02-24T10:49:57.730Z,33.70
2023-02-24T10:52:48.961Z,35.30
2023-02-24T10:55:42.493Z,31.77
2023-02-24T10:58:38.045Z,28.87
2023-02-24T11:01:54.941Z,25.03
2023-02-24T11:04:28.323Z,29.30
2023-02-24T11:07:24.644Z,27.67
2023-02-24T11:10:13.984Z,25.40
2023-02-24T11:13:19.216Z,23.43
2023-02-24T11:16:09.704Z,20.30
2023-02-24T11:18:39.209Z,18.37
2023-02-24T11:21:09.676Z,16.50
2023-02-24T11:23:43.175Z,17.07
2023-02-24T11:26:09.993Z,17.17
2023-02-24T11:28:43.773Z,12.97
2023-02-24T11:31:18.143Z,14.77
2023-02-24T11:33:57.272Z,12.67
2023-02-24T11:36:29.730Z,13.40
2023-02-24T11:39:22.706Z,16.10
2023-02-24T11:41:55.519Z,11.93
2023-02-24T11:44:58.248Z,14.47
2023-02-24T11:47:36.835Z,14.00
2023-02-24T11:50:23.622Z,12.33
2023-02-24T11:52:54.271Z,16.43
2023-02-24T11:55:38.777Z,13.53
2023-02-24T11:58:30.102Z,12.20
2023-02-24T12:01:33.736Z,11.13
2023-02-24T12:04:17.678Z,11.93
2023-02-24T12:07:06.824Z,17.17
2023-02-24T12:10:14.458Z,10.87
2023-02-24T12:13:08.562Z,13.70
2023-02-24T12:15:59.082Z,11.83
2023-02-24T12:18:39.354Z,14.13
2023-02-24T12:21:19.341Z,11.33
2023-02-24T12:23:48.438Z,16.17
2023-02-24T12:26:29.666Z,13.83
2023-02-24T12:29:20.530Z,12.77
2023-02-24T12:32:10.915Z,12.20
2023-02-24T12:35:01.043Z,10.93
2023-02-24T12:37:58.677Z,13.53
2023-02-24T12:40:53.214Z,12.33
2023-02-24T12:43:32.026Z,13.50
2023-02-24T12:46:05.030Z,15.93
2023-02-24T12:48:46.940Z,16.70
2023-02-24T12:51:19.972Z,13.97
2023-02-24T12:54:13.031Z,14.77
2023-02-24T12:57:01.517Z,16.50
2023-02-24T12:59:33.979Z,17.50
2023-02-24T13:02:35.473Z,13.97
2023-02-24T13:05:17.176Z,15.47
2023-02-24T13:08:01.456Z,18.13
2023-02-24T13:10:49.671Z,16.73
2023-02-24T13:13:27.204Z,18.97
2023-02-24T13:15:57.496Z,16.93
2023-02-24T13:18:34.019Z,17.60
2023-02-24T13:21:02.818Z,18.97
2023-02-24T13:23:31.744Z,18.50
2023-02-24T13:26:00.223Z,18.37
2023-02-24T13:28:33.427Z,17.40
2023-02-24T13:31:09.307Z,17.00
2023-02-24T13:33:42.030Z,15.87
2023-02-24T13:36:22.026Z,16.83
2023-02-24T13:38:52.489Z,16.70
2023-02-24T13:41:33.902Z,17.63
2023-02-24T13:44:21.039Z,17.60
2023-02-24T13:47:12.650Z,16.97
2023-02-24T13:49:48.428Z,17.03
2023-02-24T13:52:42.380Z,22.00
2023-02-24T13:55:23.663Z,19.20
2023-02-24T13:58:16.619Z,17.73
2023-02-24T14:01:10.904Z,17.27
2023-02-24T14:03:40.597Z,17.13
2023-02-24T14:06:19.104Z,19.87
2023-02-24T14:08:51.153Z,20.13
2023-02-24T14:11:18.785Z,21.30
2023-02-24T14:13:49.775Z,18.90
2023-02-24T14:16:22.626Z,19.40
2023-02-24T14:18:55.838Z,20.97
2023-02-24T14:21:25.817Z,22.90
2023-02-24T14:24:17.118Z,21.50
2023-02-24T14:26:55.631Z,21.13
2023-02-24T14:29:32.053Z,20.07
2023-02-24T14:32:00.063Z,19.97
2023-02-24T14:34:30.386Z,21.23
2023-02-24T14:36:59.472Z,21.07
2023-02-24T14:39:31.509Z,24.10
2023-02-24T14:42:07.670Z,22.17
2023-02-24T14:44:41.675Z,20.17
2023-02-24T14:47:11.296Z,22.37
2023-02-24T14:49:38.660Z,18.57
2023-02-24T14:52:36.956Z,21.70
2023-02-24T14:55:22.530Z,17.60
2023-02-24T14:58:01.111Z,19.23
2023-02-24T15:00:36.125Z,20.57
2023-02-24T15:03:11.989Z,22.50
2023-02-24T15:05:47.484Z,23.87
2023-02-24T15:08:27.325Z,23.30
2023-02-24T15:10:54.350Z,23.63
2023-02-24T15:13:35.779Z,23.80
2023-02-24T15:16:18.767Z,25.60
2023-02-24T15:18:51.385Z,28.13
2023-02-24T15:21:28.015Z,24.63
2023-02-24T15:24:18.726Z,28.37
2023-02-24T15:26:57.426Z,28.10
2023-02-24T15:29:27.804Z,27.00
2023-02-24T15:32:00.358Z,25.77
2023-02-24T15:34:35.065Z,26.23
2023-02-24T15:37:31.483Z,25.40
2023-02-24T15:40:07.225Z,24.80
2023-02-24T15:42:35.647Z,24.80
2023-02-24T15:45:05.953Z,26.97
2023-02-24T15:47:43.268Z,27.17
2023-02-24T15:50:11.930Z,26.63
2023-02-24T15:52:40.519Z,25.67
2023-02-24T15:55:10.283Z,28.20
2023-02-24T15:57:37.301Z,28.17
2023-02-24T16:00:13.477Z,26.23
2023-02-24T16:02:41.843Z,27.17
2023-02-24T16:05:15.608Z,30.97
2023-02-24T16:07:45.011Z,33.20
2023-02-24T16:10:19.460Z,30.83
2023-02-24T16:13:03.323Z,32.20
2023-02-24T16:15:38.016Z,28.73
2023-02-24T16:18:14.236Z,25.67
2023-02-24T16:20:41.794Z,28.80
2023-02-24T16:23:10.738Z,28.13
2023-02-24T16:25:45.165Z,26.93
2023-02-24T16:28:22.816Z,27.40
2023-02-24T16:30:51.541Z,27.57
2023-02-24T16:33:21.123Z,27.47
2023-02-24T16:35:49.367Z,25.60
2023-02-24T16:38:21.302Z,25.27
2023-02-24T16:40:49.828Z,20.80
2023-02-24T16:43:16.726Z,20.57
2023-02-24T16:46:01.695Z,19.40
2023-02-24T16:48:34.662Z,25.33
2023-02-24T16:51:02.429Z,23.00
2023-02-24T16:53:29.611Z,21.97
2023-02-24T16:55:59.742Z,23.10
2023-02-24T16:58:27.010Z,22.20
2023-02-24T17:00:59.125Z,19.33
2023-02-24T17:03:29.898Z,21.63
2023-02-24T17:06:01.004Z,23.13
2023-02-24T17:08:28.193Z,25.33
2023-02-24T17:10:55.875Z,20.57
2023-02-24T17:13:22.701Z,19.20
2023-02-24T17:15:57.687Z,24.30
2023-02-24T17:18:26.390Z,22.17
2023-02-24T17:20:53.924Z,22.33
2023-02-24T17:23:20.892Z,20.80
2023-02-24T17:25:55.023Z,21.87
2023-02-24T17:28:22.768Z,21.53
2023-02-24T17:30:49.712Z,22.23
2023-02-24T17:33:16.898Z,19.43
2023-02-24T17:35:44.744Z,20.97
2023-02-24T17:38:13.606Z,20.13
2023-02-24T17:40:41.554Z,19.97
2023-02-24T17:43:08.925Z,18.87
2023-02-24T17:45:43.444Z,20.57
2023-02-24T17:48:12.079Z,19.63
2023-02-24T17:50:42.314Z,23.67
2023-02-24T17:53:10.447Z,20.40
2023-02-24T17:55:37.689Z,20.50
2023-02-24T17:58:04.674Z,17.10
2023-02-24T18:00:31.711Z,20.27
2023-02-24T18:02:58.806Z,18.57
2023-02-24T18:05:26.474Z,20.17
2023-02-24T18:07:53.613Z,18.90
2023-02-24T18:10:20.642Z,21.20
2023-02-24T18:12:47.506Z,21.43
2023-02-24T18:15:14.417Z,21.70
2023-02-24T18:17:41.424Z,21.90
2023-02-24T18:20:09.423Z,20.23
2023-02-24T18:22:36.409Z,18.67
2023-02-24T18:25:03.511Z,21.83
2023-02-24T18:27:30.321Z,22.30
2023-02-24T18:29:57.240Z,22.57
2023-02-24T18:32:24.348Z,24.23
2023-02-24T18:34:51.412Z,20.30
2023-02-24T18:37:18.352Z,22.23
2023-02-24T18:39:45.197Z,24.43
2023-02-24T18:42:12.020Z,22.97
2023-02-24T18:44:38.881Z,20.97
2023-02-24T18:47:09.528Z,22.37
2023-02-24T18:49:37.333Z,23.63
2023-02-24T18:52:05.568Z,23.57
2023-02-24T18:54:34.386Z,26.03
2023-02-24T18:57:01.984Z,25.70
2023-02-24T18:59:29.028Z,26.07
2023-02-24T19:01:56.936Z,25.23
2023-02-24T19:04:24.954Z,23.13
2023-02-24T19:06:51.919Z,23.57
2023-02-24T19:09:21.949Z,25.13
2023-02-24T19:11:49.812Z,24.50
2023-02-24T19:14:17.572Z,30.23
2023-02-24T19:16:44.937Z,29.07
2023-02-24T19:19:16.425Z,29.23
2023-02-24T19:21:48.296Z,28.30
2023-02-24T19:24:15.949Z,25.00
2023-02-24T19:26:43.965Z,29.90
2023-02-24T19:29:11.435Z,30.77
2023-02-24T19:31:39.121Z,34.20
2023-02-24T19:34:08.533Z,33.33
2023-02-24T19:36:36.432Z,41.27
2023-02-24T19:39:04.786Z,39.17
2023-02-24T19:41:31.700Z,34.13
2023-02-24T19:43:58.506Z,37.07
2023-02-24T19:46:25.848Z,36.07
2023-02-24T19:48:52.999Z,29.57
2023-02-24T19:51:22.257Z,29.40
2023-02-24T19:53:53.086Z,28.60
2023-02-24T19:56:29.786Z,30.37
2023-02-24T19:58:58.716Z,31.37
2023-02-24T20:01:27.914Z,30.57
2023-02-24T20:03:56.984Z,28.60
2023-02-24T20:06:31.592Z,26.93
2023-02-24T20:09:00.390Z,30.00
2023-02-24T20:11:29.790Z,30.50
2023-02-24T20:13:56.774Z,31.73
2023-02-24T20:16:25.735Z,27.43
2023-02-24T20:18:55.354Z,32.50
2023-02-24T20:21:22.525Z,35.57
2023-02-24T20:23:49.564Z,30.30
2023-02-24T20:26:16.672Z,31.87
2023-02-24T20:28:44.921Z,32.33
2023-02-24T20:31:15.383Z,33.20
2023-02-24T20:33:43.708Z,33.33
2023-02-24T20:36:16.599Z,31.07
2023-02-24T20:38:43.783Z,33.37
2023-02-24T20:41:11.405Z,32.83
2023-02-24T20:43:38.461Z,32.43
2023-02-24T20:46:26.765Z,35.27
2023-02-24T20:49:01.639Z,33.43
2023-02-24T20:51:30.500Z,32.87
2023-02-24T20:53:58.748Z,28.83
2023-02-24T20:56:33.155Z,32.20
2023-02-24T20:59:01.307Z,32.53
2023-02-24T21:01:29.402Z,31.47
2023-02-24T21:03:56.686Z,29.83
2023-02-24T21:06:24.364Z,30.30
2023-02-24T21:08:53.247Z,25.37
2023-02-24T21:11:21.230Z,30.13
2023-02-24T21:13:49.886Z,28.07
2023-02-24T21:16:18.566Z,28.40
2023-02-24T21:18:47.115Z,27.83
2023-02-24T21:21:15.381Z,30.00
2023-02-24T21:23:43.318Z,28.80
2023-02-24T21:26:11.377Z,30.87
2023-02-24T21:28:38.920Z,27.23
2023-02-24T21:31:14.935Z,31.20
2023-02-24T21:33:41.918Z,28.93
2023-02-24T21:36:13.572Z,26.47
2023-02-24T21:38:41.343Z,28.33
2023-02-24T21:41:15.956Z,29.10
2023-02-24T21:43:44.339Z,30.37
2023-02-24T21:46:13.258Z,28.30
2023-02-24T21:48:40.803Z,32.40
2023-02-24T21:51:10.003Z,30.70
2023-02-24T21:53:39.426Z,29.53
2023-02-24T21:56:18.578Z,28.70
2023-02-24T21:58:54.172Z,31.80
2023-02-24T22:01:24.407Z,35.93
2023-02-24T22:03:56.036Z,32.23
2023-02-24T22:06:24.234Z,32.97
2023-02-24T22:08:51.163Z,39.27
2023-02-24T22:11:18.850Z,36.73
2023-02-24T22:13:46.841Z,39.33
2023-02-24T22:16:23.249Z,40.07
2023-02-24T22:18:51.924Z,35.80
2023-02-24T22:21:21.207Z,36.90
2023-02-24T22:23:50.152Z,36.60
2023-02-24T22:26:18.982Z,36.50
2023-02-24T22:28:48.129Z,38.53
2023-02-24T22:31:17.744Z,37.83
2023-02-24T22:33:45.514Z,39.53
2023-02-24T22:36:18.067Z,37.33
2023-02-24T22:38:48.136Z,36.07
2023-02-24T22:41:20.097Z,37.00
2023-02-24T22:43:47.598Z,36.67
2023-02-24T22:46:17.361Z,43.00
2023-02-24T22:48:44.491Z,37.50
2023-02-24T22:51:13.131Z,38.10
2023-02-24T22:53:44.033Z,35.57
2023-02-24T22:56:13.112Z,35.37
2023-02-24T22:58:40.052Z,35.63
2023-02-24T23:01:13.100Z,34.13
2023-02-24T23:03:40.322Z,33.37
2023-02-24T23:06:10.379Z,36.77
2023-02-24T23:08:39.134Z,35.17
2023-02-24T23:11:08.750Z,33.30
2023-02-24T23:13:35.703Z,36.47
2023-02-24T23:16:03.591Z,32.00
2023-02-24T23:18:31.954Z,31.90
2023-02-24T23:21:00.831Z,32.83
2023-02-24T23:23:28.204Z,32.20
2023-02-24T23:25:55.054Z,37.00
2023-02-24T23:28:21.866Z,34.63
2023-02-24T23:30:48.762Z,31.77
2023-02-24T23:33:15.626Z,33.13
2023-02-24T23:35:42.451Z,29.00
2023-02-24T23:38:10.156Z,31.63
2023-02-24T23:40:49.743Z,31.03
2023-02-24T23:43:20.393Z,30.17
2023-02-24T23:45:47.326Z,27.23
2023-02-24T23:48:14.767Z,26.53
2023-02-24T23:50:42.701Z,28.97
2023-02-24T23:53:10.302Z,25.53
2023-02-24T23:55:40.849Z,22.73
2023-02-24T23:58:08.422Z,24.07
